Flight Track Log - Related Links

Times and Time Zones

All times are in EDT time to prevent confusion due to time zone crossing. See the DAL3688 flight status page for this flight to view local times or setup timezone preferences in your user account.

Time Position Orientation Groundspeed Altitude Reporting Facility
EDT Latitude Longitude Course Direction KTS MPH feet Rate Location/Type
10:51AM 42.2081 -83.3528 173° South 139 160 1,300  Level Cleveland Center
10:53AM 42.1228 -83.3381 173° South 207 238 5,500 2,775 Climbing Cleveland Center
10:54AM 42.0756 -83.3081 155° Southeast 226 260 8,700 2,195 Climbing Cleveland Center
10:55AM 42.0806 -83.1878 87° East 329 379 10,000 750 Climbing Cleveland Center
10:56AM 42.1064 -83.0572 75° East 354 407 10,300 1,339 Climbing Cleveland Center
10:57AM 42.1319 -82.9239 75° East 371 427 12,700 2,500 Climbing Cleveland Center
10:58AM 42.1578 -82.7875 76° East 376 433 15,300 2,250 Climbing Cleveland Center
10:59AM 42.1853 -82.6456 75° East 376 433 17,200 1,850 Climbing Cleveland Center
11:00AM 42.2025 -82.4975 81° East 382 440 19,000 1,650 Climbing Cleveland Center
11:01AM 42.1419 -82.3642 121° Southeast 382 440 20,500 1,500 Climbing Cleveland Center
11:02AM 42.0731 -82.2364 126° Southeast 393 452 22,000 1,500 Climbing Cleveland Center
11:03AM 42.0083 -82.1061 124° Southeast 413 475 23,500 1,200 Climbing Cleveland Center
11:04AM 41.9392 -81.9706 124° Southeast 429 494 24,400 900 Climbing Cleveland Center
11:05AM 41.8678 -81.8350 125° Southeast 444 511 25,300 850 Climbing Cleveland Center
11:06AM 41.8022 -81.7056 124° Southeast 455 524 26,100 850 Climbing Cleveland Center
11:07AM 41.7286 -81.5708 126° Southeast 455 524 27,000 450 Climbing Cleveland Center
11:08AM 41.6547 -81.4253 124° Southeast 461 531 27,000  Level Cleveland Center
11:09AM 41.5764 -81.2797 126° Southeast 472 543 27,000  Level Cleveland Center
11:10AM 41.4958 -81.1153 123° Southeast 477 549 27,000  Level Cleveland Center
11:11AM 41.4361 -80.9542 116° Southeast 477 549 27,000  Level Cleveland Center
11:12AM 41.3739 -80.7989 118° Southeast 477 549 27,000  Level Cleveland Center
11:13AM 41.3139 -80.6411 117° Southeast 477 549 27,000  Level Cleveland Center
11:14AM 41.2492 -80.4808 118° Southeast 477 549 27,000  Level Cleveland Center
11:15AM 41.1947 -80.3403 117° Southeast 477 549 27,000  Level Cleveland Center
11:16AM 41.1317 -80.1806 118° Southeast 477 549 27,000  Level Cleveland Center
11:17AM 41.0686 -80.0214 118° Southeast 477 549 27,000  Level Cleveland Center
11:18AM 40.9986 -79.8514 119° Southeast 477 549 27,000  Level Cleveland Center
11:19AM 40.9350 -79.6925 118° Southeast 477 549 27,000  Level Cleveland Center
11:20AM 40.8711 -79.5342 118° Southeast 477 549 27,000 -300 Level Cleveland Center
11:21AM 40.8069 -79.3733 118° Southeast 482 555 26,400 -850 Descending Cleveland Center
11:22AM 40.7406 -79.2156 119° Southeast 482 555 25,300 -900 Descending Cleveland Center
11:23AM 40.6761 -79.0581 118° Southeast 482 555 24,600 -550 Descending Cleveland Center
11:24AM 40.6114 -78.9092 120° Southeast 482 555 24,200 -450 Descending Cleveland Center
11:25AM 40.5553 -78.7686 118° Southeast 482 555 23,700 -500 Descending Cleveland Center
11:26AM 40.5253 -78.5972 103° East 476 548 23,200 -784 Descending Cleveland Center
11:28AM 40.4864 -78.3306 101° East 467 537 21,700 -1,176 Descending New York Center
11:29AM 40.4636 -78.1644 100° East 461 531 20,200 -1,488 Descending New York Center
11:30AM 40.4400 -78.0064 101° East 449 517 18,700 -1,664 Descending New York Center
11:31AM 40.4200 -77.8542 100° East 436 502 16,900 -1,916 Descending New York Center
11:32AM 40.3992 -77.7131 101° East 414 476 14,900 -2,066 Descending New York Center
11:33AM 40.3792 -77.5911 102° East 387 445 12,700 -1,866 Descending New York Center
11:34AM 40.3581 -77.4528 101° East 361 415 11,200 -1,322 Descending New York Center
11:35AM 40.3392 -77.3419 103° East 344 396 10,100 -1,289 Descending New York Center
11:36AM 40.2933 -77.2286 118° Southeast 327 376 8,600 -1,339 Descending New York Center
11:37AM 40.2522 -77.1378 121° Southeast 322 371 7,400 -1,250 Descending New York Center
11:38AM 40.2036 -77.0356 122° Southeast 309 356 6,100 -1,190 Descending New York Center
11:39AM 40.1664 -76.9506 120° Southeast 303 349 5,000 -1,190 Descending New York Center
11:40AM 40.1233 -76.8544 120° Southeast 290 334 3,700 -864 Descending New York Center
11:41AM 40.0983 -76.7764 113° Southeast 277 319 3,300 -403 Descending New York Center
11:42AM 40.0756 -76.6875 108° East 247 284 2,900 -393 Descending New York Center
11:43AM 40.1172 -76.6475 36° Northeast 166 191 2,500 -454 Descending New York Center
11:44AM 40.1519 -76.6614 343° North 140 161 2,000 3,250 Descending New York Center
11:45AM 40.1906 -76.6811 339° North 140 161 9,000 3,443 Climbing New York Center
11:46AM 40.2272 -76.6978 341° North 140 161 9,000  Level New York Center

Login

Don't have an account? Register now (free) for customized features, flight alerts, and more!